Terminal Aerodrome Forecast
Issued by NWS Detroit/Pontiac, MI

Home | Current Version | Previous Version | Text Only | Print | Product List | Glossary On
Versions: 1 2 3 4 5 6 7 8 9 10 11 12 13 14 15 16 17 18 19 20 21
707
FTUS43 KDTX 211722
TAFFNT
TAF
KFNT 211722Z 2118/2218 16007KT 2SM BR OVC004
      TEMPO 2118/2120 4SM BR BKN004
     FM212000 17005KT 4SM BR SCT005 SCT060
     FM220000 17005KT 3SM BR SCT050
     FM220200 VRB03KT 1/2SM FG OVC003
     FM221600 07005KT 1SM BR OVC003=

USA.gov is the U.S. government's official web portal to all federal, state and local government web resources and services.